Time;durP1;ratioP1;P1;durP2;ratioP2;P2;SDS_P1;SDS_P2;PMS_P1;PMS_P2;Temp;Humidity;BMP_temperature;BMP_pressure;BME280_temperature;BME280_humidity;BME280_pressure;Samples;Min_cycle;Max_cycle;Signal;HPM_P1;HPM_P2
2022/05/10 00:01:33;;;;;;;5.72;4.88;;;;;;;;;;5089332;28;24487;-45
2022/05/10 00:04:00;;;;;;;6.65;4.65;;;;;;;;;;5089128;28;24464;-44
2022/05/10 00:06:27;;;;;;;5.40;4.90;;;;;;;;;;5086994;28;24518;-44
2022/05/10 00:08:52;;;;;;;5.57;4.45;;;;;;;;;;5089215;28;24983;-45
2022/05/10 00:11:17;;;;;;;5.00;4.60;;;;;;;;;;5090983;28;24425;-44
2022/05/10 00:13:42;;;;;;;5.80;4.70;;;;;;;;;;5088283;28;24479;-45
2022/05/10 00:16:14;;;;;;;6.90;4.55;;;;;;;;;;5086389;28;24989;-45
2022/05/10 00:18:39;;;;;;;5.95;4.50;;;;;;;;;;5089387;28;24406;-45
2022/05/10 00:21:04;;;;;;;4.83;4.43;;;;;;;;;;5090551;28;24413;-45
2022/05/10 00:23:29;;;;;;;5.30;4.80;;;;;;;;;;5087441;28;24483;-45
2022/05/10 00:25:55;;;;;;;5.20;4.70;;;;;;;;;;5084585;28;24428;-45
2022/05/10 00:28:20;;;;;;;5.38;4.47;;;;;;;;;;5087230;28;24514;-45
2022/05/10 00:30:45;;;;;;;6.10;5.30;;;;;;;;;;5088618;28;24457;-45
2022/05/10 00:33:15;;;;;;;6.93;4.83;;;;;;;;;;5087193;28;24436;-45
2022/05/10 00:35:40;;;;;;;5.68;4.85;;;;;;;;;;5088110;28;24522;-45
2022/05/10 00:38:05;;;;;;;6.53;5.00;;;;;;;;;;5086612;28;24708;-45
2022/05/10 00:40:32;;;;;;;5.60;5.10;;;;;;;;;;5082167;28;24419;-45
2022/05/10 00:43:05;;;;;;;5.87;4.90;;;;;;;;;;5085028;28;24793;-45
2022/05/10 00:45:40;;;;;;;4.80;4.40;;;;;;;;;;5084227;28;24427;-45
2022/05/10 00:48:10;;;;;;;5.65;4.63;;;;;;;;;;5083240;28;24436;-45
2022/05/10 00:50:57;;;;;;;6.85;5.15;;;;;;;;;;5088513;28;24434;-45
2022/05/10 00:53:41;;;;;;;6.30;5.10;;;;;;;;;;5087701;28;24955;-45
2022/05/10 00:56:09;;;;;;;5.63;4.90;;;;;;;;;;5083022;28;24811;-45
2022/05/10 00:58:50;;;;;;;5.88;4.88;;;;;;;;;;5083078;28;24777;-45
2022/05/10 01:01:18;;;;;;;5.40;4.80;;;;;;;;;;5080366;28;24430;-44
2022/05/10 01:03:51;;;;;;;5.80;5.00;;;;;;;;;;5081121;28;24429;-44
2022/05/10 01:06:24;;;;;;;5.95;5.35;;;;;;;;;;5085216;28;24441;-45
2022/05/10 01:09:04;;;;;;;5.80;5.30;;;;;;;;;;5078350;28;24472;-45
2022/05/10 01:11:40;;;;;;;6.47;5.40;;;;;;;;;;5076288;28;25116;-44
2022/05/10 01:14:20;;;;;;;6.68;5.60;;;;;;;;;;5086684;28;24484;-44
2022/05/10 01:16:46;;;;;;;10.95;5.72;;;;;;;;;;5080342;28;24812;-45
2022/05/10 01:19:12;;;;;;;6.37;5.20;;;;;;;;;;5080912;28;25226;-45
2022/05/10 01:22:03;;;;;;;7.80;5.43;;;;;;;;;;5083198;28;24499;-45
2022/05/10 01:24:34;;;;;;;5.65;5.10;;;;;;;;;;5087185;28;24437;-45
2022/05/10 01:27:18;;;;;;;6.68;5.60;;;;;;;;;;5083336;28;25037;-45
2022/05/10 01:29:46;;;;;;;7.22;4.90;;;;;;;;;;5077992;28;24445;-44
2022/05/10 01:35:03;;;;;;;6.07;5.57;;;;;;;;;;5086137;28;24417;-45
2022/05/10 01:37:31;;;;;;;6.72;5.80;;;;;;;;;;5085192;28;24773;-45
2022/05/10 01:40:04;;;;;;;6.70;5.72;;;;;;;;;;5088722;28;24463;-45
2022/05/10 01:42:47;;;;;;;6.00;5.40;;;;;;;;;;5084616;28;24486;-45
2022/05/10 01:45:17;;;;;;;5.90;5.22;;;;;;;;;;5084001;28;24505;-45
2022/05/10 01:47:47;;;;;;;5.78;5.20;;;;;;;;;;5081954;28;24441;-45
2022/05/10 01:50:19;;;;;;;6.05;5.45;;;;;;;;;;5078814;28;24450;-45
2022/05/10 01:52:53;;;;;;;5.97;5.38;;;;;;;;;;5073658;28;24422;-45
2022/05/10 01:55:39;;;;;;;6.00;5.40;;;;;;;;;;5080517;28;24514;-45
2022/05/10 01:58:14;;;;;;;7.32;5.90;;;;;;;;;;5079394;28;24475;-45
2022/05/10 02:00:41;;;;;;;6.00;5.40;;;;;;;;;;5081673;28;24422;-45
2022/05/10 02:03:13;;;;;;;6.15;5.10;;;;;;;;;;5086606;28;24459;-45
2022/05/10 02:05:57;;;;;;;6.10;5.50;;;;;;;;;;5084196;28;24470;-45
2022/05/10 02:08:26;;;;;;;5.70;5.20;;;;;;;;;;5081722;28;24422;-45
2022/05/10 02:10:52;;;;;;;6.18;5.57;;;;;;;;;;5084443;28;24422;-45
2022/05/10 02:13:23;;;;;;;5.50;5.00;;;;;;;;;;5085352;28;24433;-45
2022/05/10 02:15:59;;;;;;;6.40;5.72;;;;;;;;;;5084881;28;24494;-45
2022/05/10 02:18:27;;;;;;;5.83;5.23;;;;;;;;;;5081841;28;24426;-44
2022/05/10 02:20:56;;;;;;;6.70;5.68;;;;;;;;;;5079166;28;24464;-44
2022/05/10 02:23:28;;;;;;;7.57;5.90;;;;;;;;;;5086071;28;24437;-45
2022/05/10 02:25:56;;;;;;;6.70;5.47;;;;;;;;;;5074416;28;24832;-44
2022/05/10 02:28:21;;;;;;;7.73;5.63;;;;;;;;;;5085393;28;24865;-45
2022/05/10 02:30:47;;;;;;;6.22;5.63;;;;;;;;;;5079559;28;24881;-44
2022/05/10 02:33:14;;;;;;;6.43;5.55;;;;;;;;;;5085774;28;24435;-45
2022/05/10 02:35:48;;;;;;;6.20;5.60;;;;;;;;;;5081927;28;24441;-45
2022/05/10 02:38:17;;;;;;;8.20;5.90;;;;;;;;;;5084099;28;24429;-44
2022/05/10 02:40:43;;;;;;;8.60;5.30;;;;;;;;;;5081342;28;24461;-44
2022/05/10 02:43:10;;;;;;;7.43;5.90;;;;;;;;;;5083538;28;25291;-45
2022/05/10 02:45:36;;;;;;;9.88;6.35;;;;;;;;;;5082937;28;24444;-45
2022/05/10 02:48:02;;;;;;;6.28;5.30;;;;;;;;;;5084524;28;24501;-45
2022/05/10 02:50:32;;;;;;;7.70;5.53;;;;;;;;;;5082652;28;24996;-45
2022/05/10 02:52:57;;;;;;;5.60;5.20;;;;;;;;;;5082122;28;24425;-45
2022/05/10 02:55:25;;;;;;;6.70;6.10;;;;;;;;;;5086460;28;24422;-45
2022/05/10 02:57:52;;;;;;;7.25;5.55;;;;;;;;;;5080428;28;24411;-45
2022/05/10 03:00:18;;;;;;;6.30;5.70;;;;;;;;;;5078637;28;24491;-45
2022/05/10 03:02:46;;;;;;;6.47;5.88;;;;;;;;;;5082065;28;24433;-45
2022/05/10 03:08:13;;;;;;;6.43;5.80;;;;;;;;;;5076244;28;24406;-45
2022/05/10 03:10:39;;;;;;;6.45;5.85;;;;;;;;;;5078721;28;25198;-46
2022/05/10 03:13:04;;;;;;;5.72;5.22;;;;;;;;;;5075441;28;25078;-45
2022/05/10 03:15:29;;;;;;;6.87;5.50;;;;;;;;;;5080221;28;24468;-45
2022/05/10 03:17:54;;;;;;;6.60;6.00;;;;;;;;;;5084902;28;24478;-45
2022/05/10 03:20:19;;;;;;;6.63;5.90;;;;;;;;;;5084588;28;24469;-45
2022/05/10 03:22:44;;;;;;;7.95;5.60;;;;;;;;;;5084164;28;24433;-45
2022/05/10 03:25:09;;;;;;;6.78;6.00;;;;;;;;;;5080672;28;24784;-45
2022/05/10 03:27:35;;;;;;;6.47;5.70;;;;;;;;;;5079471;28;24450;-45
2022/05/10 03:30:02;;;;;;;8.03;6.10;;;;;;;;;;5083269;28;24437;-45
2022/05/10 03:32:27;;;;;;;6.65;5.95;;;;;;;;;;5083518;28;24441;-45
2022/05/10 03:34:57;;;;;;;7.72;6.95;;;;;;;;;;5085488;28;24419;-45
2022/05/10 03:37:23;;;;;;;8.40;6.13;;;;;;;;;;5085005;28;24422;-44
2022/05/10 03:39:49;;;;;;;6.40;5.70;;;;;;;;;;5083142;28;24433;-44
2022/05/10 03:42:14;;;;;;;8.87;6.40;;;;;;;;;;5080563;28;24995;-44
2022/05/10 03:44:39;;;;;;;6.23;5.73;;;;;;;;;;5086175;28;24437;-44
2022/05/10 03:47:05;;;;;;;8.30;6.32;;;;;;;;;;5079633;28;24792;-44
2022/05/10 03:49:30;;;;;;;7.90;6.22;;;;;;;;;;5081364;28;24476;-46
2022/05/10 03:51:55;;;;;;;6.70;6.00;;;;;;;;;;5084881;28;24437;-46
2022/05/10 03:54:24;;;;;;;7.00;6.35;;;;;;;;;;5086136;28;24421;-46
2022/05/10 03:56:50;;;;;;;7.07;6.03;;;;;;;;;;5085953;28;24483;-52
2022/05/10 03:59:15;;;;;;;6.60;5.80;;;;;;;;;;5079516;28;24426;-45
2022/05/10 04:01:40;;;;;;;6.60;5.83;;;;;;;;;;5082550;28;24426;-46
2022/05/10 04:04:05;;;;;;;6.27;5.67;;;;;;;;;;5085404;28;24429;-46
2022/05/10 04:06:31;;;;;;;6.80;5.47;;;;;;;;;;5084040;28;24422;-45
2022/05/10 04:08:56;;;;;;;6.95;6.25;;;;;;;;;;5082085;28;24516;-45
2022/05/10 04:11:21;;;;;;;10.10;6.70;;;;;;;;;;5083650;28;24438;-45
2022/05/10 04:13:47;;;;;;;6.75;6.05;;;;;;;;;;5081917;28;24468;-45
2022/05/10 04:16:12;;;;;;;6.37;5.77;;;;;;;;;;5078557;28;24962;-45
2022/05/10 04:18:37;;;;;;;6.50;5.73;;;;;;;;;;5083218;28;24452;-45
2022/05/10 04:21:02;;;;;;;6.55;5.60;;;;;;;;;;5078414;28;24445;-46
2022/05/10 04:23:27;;;;;;;6.70;5.80;;;;;;;;;;5078001;28;24426;-45
2022/05/10 04:25:53;;;;;;;6.07;5.57;;;;;;;;;;5080243;28;24563;-46
2022/05/10 04:28:18;;;;;;;5.97;5.37;;;;;;;;;;5083525;28;24509;-46
2022/05/10 04:30:44;;;;;;;5.83;5.23;;;;;;;;;;5081772;28;24449;-46
2022/05/10 04:33:09;;;;;;;7.40;5.60;;;;;;;;;;5079232;28;24777;-46
2022/05/10 04:35:34;;;;;;;6.40;5.70;;;;;;;;;;5075168;28;24505;-44
2022/05/10 04:38:00;;;;;;;6.17;5.50;;;;;;;;;;5079351;28;24479;-44
2022/05/10 04:43:09;;;;;;;5.90;5.30;;;;;;;;;;5080192;28;24468;-44
2022/05/10 04:45:35;;;;;;;5.60;5.10;;;;;;;;;;5081124;28;24430;-44
2022/05/10 04:48:00;;;;;;;5.53;5.00;;;;;;;;;;5085367;28;25063;-44
2022/05/10 04:50:25;;;;;;;5.80;5.20;;;;;;;;;;5082507;28;24997;-44
2022/05/10 04:52:50;;;;;;;5.30;4.80;;;;;;;;;;5076732;28;24423;-44
2022/05/10 04:55:16;;;;;;;6.33;5.30;;;;;;;;;;5082090;28;24422;-44
2022/05/10 04:57:41;;;;;;;5.50;4.88;;;;;;;;;;5080566;28;26272;-44
2022/05/10 05:00:08;;;;;;;4.97;4.47;;;;;;;;;;5075073;28;24430;-44
2022/05/10 05:02:34;;;;;;;5.45;4.95;;;;;;;;;;5080191;28;24438;-44
2022/05/10 05:04:59;;;;;;;6.10;5.28;;;;;;;;;;5083142;28;24452;-44
2022/05/10 05:07:24;;;;;;;5.20;4.40;;;;;;;;;;5081340;28;24430;-44
2022/05/10 05:09:49;;;;;;;5.65;5.05;;;;;;;;;;5080589;28;24429;-46
2022/05/10 05:12:15;;;;;;;6.33;5.30;;;;;;;;;;5077691;28;25097;-46
2022/05/10 05:14:41;;;;;;;5.57;5.00;;;;;;;;;;5083473;28;24479;-44
2022/05/10 05:17:06;;;;;;;5.50;5.00;;;;;;;;;;5084091;28;24422;-44
2022/05/10 05:19:31;;;;;;;5.60;4.40;;;;;;;;;;5083556;28;24433;-44
2022/05/10 05:21:56;;;;;;;5.27;4.77;;;;;;;;;;5087832;28;24831;-45
2022/05/10 05:24:21;;;;;;;5.30;4.80;;;;;;;;;;5085723;28;24425;-44
2022/05/10 05:26:47;;;;;;;4.90;4.50;;;;;;;;;;5100032;28;24432;-44
2022/05/10 05:29:12;;;;;;;7.00;5.00;;;;;;;;;;5074000;28;24430;-44
2022/05/10 05:31:37;;;;;;;5.27;4.77;;;;;;;;;;5088125;28;24997;-44
2022/05/10 05:34:03;;;;;;;5.90;4.68;;;;;;;;;;5067408;28;24422;-44
2022/05/10 05:36:28;;;;;;;5.37;4.87;;;;;;;;;;5080657;28;24479;-44
2022/05/10 05:38:53;;;;;;;6.43;4.70;;;;;;;;;;5086465;28;25052;-44
2022/05/10 05:41:18;;;;;;;6.13;4.90;;;;;;;;;;5088161;28;24410;-45
2022/05/10 05:43:44;;;;;;;5.18;4.57;;;;;;;;;;5066258;28;24698;-45
2022/05/10 05:46:09;;;;;;;5.60;5.00;;;;;;;;;;5068582;28;24441;-45
2022/05/10 05:48:34;;;;;;;5.70;4.67;;;;;;;;;;5068399;28;24402;-45
2022/05/10 05:50:59;;;;;;;7.30;5.50;;;;;;;;;;5078820;28;24431;-45
2022/05/10 05:53:26;;;;;;;7.97;5.60;;;;;;;;;;5088209;28;24382;-46
2022/05/10 05:55:53;;;;;;;7.30;5.80;;;;;;;;;;5082434;28;24449;-45
2022/05/10 05:58:18;;;;;;;5.32;4.82;;;;;;;;;;5081368;28;24526;-46
2022/05/10 06:00:43;;;;;;;6.10;5.10;;;;;;;;;;5082715;28;25585;-45
2022/05/10 06:03:09;;;;;;;6.40;5.00;;;;;;;;;;5083394;28;24425;-45
2022/05/10 06:05:34;;;;;;;7.47;4.93;;;;;;;;;;5083740;28;24430;-46
2022/05/10 06:08:00;;;;;;;5.30;4.80;;;;;;;;;;5082632;28;24973;-45
2022/05/10 06:10:26;;;;;;;6.88;4.30;;;;;;;;;;5081844;28;24423;-45
2022/05/10 06:12:51;;;;;;;5.63;4.67;;;;;;;;;;5082707;28;25268;-45
2022/05/10 06:15:17;;;;;;;5.60;5.00;;;;;;;;;;5083676;28;24427;-46
2022/05/10 06:17:43;;;;;;;8.75;4.95;;;;;;;;;;5069468;28;24430;-46
2022/05/10 06:20:09;;;;;;;5.33;4.63;;;;;;;;;;5075677;28;24441;-44
2022/05/10 06:22:35;;;;;;;6.60;5.07;;;;;;;;;;5083725;28;24434;-45
2022/05/10 06:25:01;;;;;;;8.48;5.20;;;;;;;;;;5084480;28;24482;-44
2022/05/10 06:27:26;;;;;;;8.53;5.10;;;;;;;;;;5084613;28;24418;-44
2022/05/10 06:29:51;;;;;;;6.20;5.20;;;;;;;;;;5080355;28;24479;-44
2022/05/10 06:32:24;;;;;;;5.63;4.83;;;;;;;;;;5081242;28;24441;-45
2022/05/10 06:34:50;;;;;;;5.82;4.80;;;;;;;;;;5076446;28;24415;-45
2022/05/10 06:38:16;;;;;;;5.32;4.88;;;;;;;;;;5081011;28;24824;-44
2022/05/10 06:40:04;;;;;;;6.20;4.70;;;;;;;;;;5077340;28;24430;-44
2022/05/10 06:42:30;;;;;;;4.55;4.15;;;;;;;;;;5078879;28;24995;-45
2022/05/10 06:44:55;;;;;;;4.97;4.47;;;;;;;;;;5086326;28;24433;-44
2022/05/10 06:47:20;;;;;;;5.05;4.55;;;;;;;;;;5079781;28;24442;-48
2022/05/10 06:49:45;;;;;;;5.57;4.30;;;;;;;;;;5080533;28;24430;-46
2022/05/10 06:52:10;;;;;;;5.70;4.28;;;;;;;;;;5085633;28;24511;-45
2022/05/10 06:54:35;;;;;;;5.28;4.88;;;;;;;;;;5081502;28;24422;-45
2022/05/10 06:57:00;;;;;;;5.13;4.63;;;;;;;;;;5087507;28;24379;-45
2022/05/10 06:59:26;;;;;;;5.30;4.80;;;;;;;;;;5085441;28;24495;-45
2022/05/10 07:01:51;;;;;;;6.10;5.28;;;;;;;;;;5074642;28;24421;-45
2022/05/10 07:04:16;;;;;;;4.38;4.07;;;;;;;;;;5066007;28;24471;-44
2022/05/10 07:06:41;;;;;;;5.45;4.38;;;;;;;;;;5066396;28;24479;-45
2022/05/10 07:09:06;;;;;;;5.90;4.90;;;;;;;;;;5066322;28;24433;-45
2022/05/10 07:11:31;;;;;;;5.20;4.70;;;;;;;;;;5074596;28;24443;-44
2022/05/10 07:13:56;;;;;;;5.10;4.60;;;;;;;;;;5073920;28;24818;-45
2022/05/10 07:16:21;;;;;;;5.68;4.90;;;;;;;;;;5087029;28;24395;-44
2022/05/10 07:18:47;;;;;;;5.78;5.10;;;;;;;;;;5078615;28;24462;-45
2022/05/10 07:21:12;;;;;;;4.60;4.20;;;;;;;;;;5069816;28;25041;-44
2022/05/10 07:23:37;;;;;;;5.70;4.40;;;;;;;;;;5077300;28;24426;-44
2022/05/10 07:26:03;;;;;;;5.22;4.80;;;;;;;;;;5065668;28;24429;-44
2022/05/10 07:28:29;;;;;;;6.10;4.47;;;;;;;;;;5073088;28;24956;-44
2022/05/10 07:30:55;;;;;;;4.80;4.22;;;;;;;;;;5085141;28;24541;-44
2022/05/10 07:33:20;;;;;;;5.38;4.47;;;;;;;;;;5083900;28;24823;-44
2022/05/10 07:38:29;;;;;;;5.00;4.60;;;;;;;;;;5086597;28;24981;-45
2022/05/10 07:40:54;;;;;;;4.30;4.00;;;;;;;;;;5087020;28;24406;-44
2022/05/10 07:43:20;;;;;;;4.50;4.10;;;;;;;;;;5082863;28;25065;-45
2022/05/10 07:45:46;;;;;;;4.90;4.40;;;;;;;;;;5086523;28;24421;-44
2022/05/10 07:48:11;;;;;;;4.30;3.90;;;;;;;;;;5073526;28;24863;-44
2022/05/10 07:50:37;;;;;;;5.03;4.63;;;;;;;;;;5073496;28;25044;-44
2022/05/10 07:53:06;;;;;;;4.67;4.27;;;;;;;;;;5083841;28;24414;-44
2022/05/10 07:55:31;;;;;;;4.63;4.22;;;;;;;;;;5085623;28;24419;-45
2022/05/10 07:57:57;;;;;;;4.40;4.10;;;;;;;;;;5085243;28;24421;-44
2022/05/10 08:00:22;;;;;;;4.40;4.07;;;;;;;;;;5085260;28;24432;-44
2022/05/10 08:02:47;;;;;;;6.20;5.17;;;;;;;;;;5074294;28;24437;-44
2022/05/10 08:05:17;;;;;;;5.15;4.47;;;;;;;;;;5077757;28;24498;-44
2022/05/10 08:07:42;;;;;;;4.25;3.85;;;;;;;;;;5084852;28;24433;-44
2022/05/10 08:10:07;;;;;;;5.10;4.60;;;;;;;;;;5086506;28;24398;-44
2022/05/10 08:12:32;;;;;;;5.77;5.20;;;;;;;;;;5071128;28;24530;-45
2022/05/10 08:14:57;;;;;;;4.10;3.80;;;;;;;;;;5067114;28;24407;-45
2022/05/10 08:17:23;;;;;;;5.05;4.55;;;;;;;;;;5078525;28;24430;-45
2022/05/10 08:19:50;;;;;;;5.28;4.57;;;;;;;;;;5090471;28;25623;-45
2022/05/10 08:22:16;;;;;;;4.00;3.70;;;;;;;;;;5084159;28;24940;-45
2022/05/10 08:24:41;;;;;;;4.60;4.20;;;;;;;;;;5089186;28;24418;-45
2022/05/10 08:27:06;;;;;;;5.45;4.95;;;;;;;;;;5090128;28;24416;-43
2022/05/10 08:29:31;;;;;;;4.20;3.90;;;;;;;;;;5089122;28;24963;-44
2022/05/10 08:31:58;;;;;;;4.87;4.40;;;;;;;;;;5088052;28;24607;-44
2022/05/10 08:34:23;;;;;;;4.60;4.20;;;;;;;;;;5069893;28;24510;-45
2022/05/10 08:36:48;;;;;;;4.80;4.40;;;;;;;;;;5070885;28;24411;-44
2022/05/10 08:39:14;;;;;;;5.38;4.90;;;;;;;;;;5069474;28;24452;-43
2022/05/10 08:41:47;;;;;;;4.73;4.33;;;;;;;;;;5069578;28;24952;-43
2022/05/10 08:44:17;;;;;;;4.82;4.43;;;;;;;;;;5069474;28;24391;-45
2022/05/10 08:46:44;;;;;;;5.45;5.05;;;;;;;;;;5080933;28;24427;-44
2022/05/10 08:49:15;;;;;;;5.30;4.80;;;;;;;;;;5069989;28;24383;-44
2022/05/10 08:51:40;;;;;;;5.28;4.78;;;;;;;;;;5078461;28;24430;-44
2022/05/10 08:54:06;;;;;;;5.90;5.30;;;;;;;;;;5087804;28;24777;-44
2022/05/10 08:56:36;;;;;;;5.18;4.78;;;;;;;;;;5087084;28;24497;-44
2022/05/10 08:59:17;;;;;;;5.20;4.10;;;;;;;;;;5069397;28;24422;-44
2022/05/10 09:02:03;;;;;;;4.50;4.20;;;;;;;;;;5069048;28;24393;-44
2022/05/10 09:04:47;;;;;;;5.82;5.22;;;;;;;;;;5070958;28;24513;-44
2022/05/10 09:07:31;;;;;;;5.05;4.65;;;;;;;;;;5073865;28;24418;-44
2022/05/10 09:10:00;;;;;;;5.28;4.88;;;;;;;;;;5089034;28;24826;-44
2022/05/10 09:12:25;;;;;;;6.18;5.57;;;;;;;;;;5089646;28;24513;-44
2022/05/10 09:14:50;;;;;;;5.70;5.30;;;;;;;;;;5089112;28;25073;-44
2022/05/10 09:17:17;;;;;;;5.03;4.63;;;;;;;;;;5087893;28;24426;-44
2022/05/10 09:19:43;;;;;;;5.40;5.00;;;;;;;;;;5088842;28;24429;-44
2022/05/10 09:22:26;;;;;;;6.15;5.55;;;;;;;;;;5088714;28;24940;-44
2022/05/10 09:24:53;;;;;;;5.68;5.18;;;;;;;;;;5087544;28;24963;-44
2022/05/10 09:27:19;;;;;;;5.90;5.40;;;;;;;;;;5088961;28;24433;-44
2022/05/10 09:29:48;;;;;;;5.15;4.65;;;;;;;;;;5086850;28;24984;-44
2022/05/10 09:35:09;;;;;;;5.60;5.20;;;;;;;;;;5088212;28;25193;-44
2022/05/10 09:37:41;;;;;;;6.90;6.18;;;;;;;;;;5089201;28;24406;-44
2022/05/10 09:40:19;;;;;;;5.80;5.40;;;;;;;;;;5087019;28;25079;-43
2022/05/10 09:42:46;;;;;;;6.17;5.67;;;;;;;;;;5088689;28;24459;-44
2022/05/10 09:45:20;;;;;;;7.80;5.80;;;;;;;;;;5088395;28;24761;-44
2022/05/10 09:47:56;;;;;;;6.50;6.00;;;;;;;;;;5087229;28;24495;-44
2022/05/10 09:50:25;;;;;;;6.85;6.35;;;;;;;;;;5075198;28;24446;-44
2022/05/10 09:53:06;;;;;;;7.75;5.88;;;;;;;;;;5067989;28;24391;-44
2022/05/10 09:55:31;;;;;;;6.47;5.97;;;;;;;;;;5085849;28;24441;-44
2022/05/10 09:57:57;;;;;;;6.87;6.10;;;;;;;;;;5087345;28;24456;-44
2022/05/10 10:00:59;;;;;;;6.25;5.75;;;;;;;;;;5093720;28;24449;-44
2022/05/10 10:03:32;;;;;;;7.00;6.30;;;;;;;;;;5005214;28;24419;-44
2022/05/10 10:06:12;;;;;;;6.20;5.70;;;;;;;;;;5074907;28;24421;-44
2022/05/10 10:08:42;;;;;;;6.40;5.90;;;;;;;;;;5087140;28;24386;-44
2022/05/10 10:11:24;;;;;;;7.15;6.55;;;;;;;;;;5084799;28;24438;-44
2022/05/10 10:13:51;;;;;;;6.93;6.43;;;;;;;;;;5085890;28;24829;-45
2022/05/10 10:16:20;;;;;;;7.40;5.80;;;;;;;;;;5087956;28;24979;-44
2022/05/10 10:18:47;;;;;;;7.57;6.82;;;;;;;;;;5088247;28;24493;-45
2022/05/10 10:21:22;;;;;;;5.50;5.10;;;;;;;;;;5084573;28;24452;-45
2022/05/10 10:23:56;;;;;;;5.25;4.80;;;;;;;;;;5085732;28;24434;-45
2022/05/10 10:26:25;;;;;;;4.93;4.53;;;;;;;;;;5087898;28;24414;-45
2022/05/10 10:28:56;;;;;;;6.20;5.70;;;;;;;;;;5087786;28;24413;-45
2022/05/10 10:31:26;;;;;;;6.00;5.50;;;;;;;;;;5066929;28;25065;-45
2022/05/10 10:33:57;;;;;;;6.63;6.13;;;;;;;;;;5067580;28;24401;-45
2022/05/10 10:36:28;;;;;;;6.30;5.80;;;;;;;;;;5081752;28;24948;-45
2022/05/10 10:39:01;;;;;;;6.95;5.70;;;;;;;;;;5087269;28;24382;-45
2022/05/10 10:41:44;;;;;;;5.80;5.40;;;;;;;;;;5084994;28;24454;-45
2022/05/10 10:44:18;;;;;;;6.00;5.60;;;;;;;;;;5067447;28;25010;-45
2022/05/10 10:46:54;;;;;;;6.00;5.60;;;;;;;;;;5083846;28;24480;-45
2022/05/10 10:49:22;;;;;;;5.70;5.20;;;;;;;;;;5087015;28;24472;-45
2022/05/10 10:51:47;;;;;;;5.68;5.28;;;;;;;;;;5072069;28;24454;-44
2022/05/10 10:54:17;;;;;;;5.77;5.20;;;;;;;;;;5066896;28;24448;-44
2022/05/10 10:56:47;;;;;;;5.93;5.43;;;;;;;;;;5066878;28;24394;-44
2022/05/10 10:59:31;;;;;;;5.45;5.15;;;;;;;;;;5085525;28;24432;-44
2022/05/10 11:02:02;;;;;;;5.63;5.15;;;;;;;;;;5085211;28;24422;-44
2022/05/10 11:04:46;;;;;;;5.38;4.97;;;;;;;;;;5087691;28;24938;-44
2022/05/10 11:07:20;;;;;;;5.82;5.43;;;;;;;;;;5086830;28;24497;-44
2022/05/10 11:10:08;;;;;;;6.45;5.35;;;;;;;;;;5085723;28;24529;-44
2022/05/10 11:12:36;;;;;;;6.47;5.77;;;;;;;;;;5067464;28;24497;-44
2022/05/10 11:15:01;;;;;;;5.55;5.15;;;;;;;;;;5066733;28;24757;-44
2022/05/10 11:17:29;;;;;;;6.10;5.60;;;;;;;;;;5066908;28;24813;-45
2022/05/10 11:20:13;;;;;;;6.38;5.78;;;;;;;;;;5066535;28;24415;-45
2022/05/10 11:22:38;;;;;;;6.18;5.68;;;;;;;;;;5067266;28;24462;-45
2022/05/10 11:25:27;;;;;;;6.10;5.60;;;;;;;;;;5066735;28;24707;-45
2022/05/10 11:27:52;;;;;;;6.40;5.90;;;;;;;;;;5067010;28;24402;-45
2022/05/10 11:30:23;;;;;;;5.47;5.00;;;;;;;;;;5066432;28;24419;-45
2022/05/10 11:33:11;;;;;;;5.57;5.15;;;;;;;;;;5067564;28;24481;-45
2022/05/10 11:35:46;;;;;;;5.20;4.80;;;;;;;;;;5086555;28;24390;-45
2022/05/10 11:38:34;;;;;;;5.80;5.30;;;;;;;;;;5086948;28;24494;-45
2022/05/10 11:41:16;;;;;;;5.38;4.97;;;;;;;;;;5075120;28;24422;-43
2022/05/10 11:43:56;;;;;;;5.32;4.93;;;;;;;;;;5086260;28;24429;-45
2022/05/10 11:46:24;;;;;;;5.20;4.80;;;;;;;;;;5078004;28;24423;-45
2022/05/10 11:49:08;;;;;;;4.40;4.10;;;;;;;;;;5086405;28;24459;-43
2022/05/10 11:51:39;;;;;;;4.10;3.90;;;;;;;;;;5088184;28;24858;-43
2022/05/10 11:54:13;;;;;;;4.60;4.30;;;;;;;;;;5090268;28;24465;-43
2022/05/10 11:56:39;;;;;;;4.60;4.30;;;;;;;;;;5089126;28;24433;-43
2022/05/10 11:59:08;;;;;;;4.25;3.95;;;;;;;;;;5073050;28;24773;-43
2022/05/10 12:01:40;;;;;;;4.50;4.20;;;;;;;;;;5069418;28;24460;-43
2022/05/10 12:04:05;;;;;;;3.80;3.60;;;;;;;;;;5070320;28;25042;-44
2022/05/10 12:06:31;;;;;;;4.20;3.90;;;;;;;;;;5069960;28;25148;-44
2022/05/10 12:08:57;;;;;;;4.60;4.20;;;;;;;;;;5069941;28;24758;-45
2022/05/10 12:11:28;;;;;;;4.50;4.10;;;;;;;;;;5072053;28;24988;-43
2022/05/10 12:22:08;;;;;;;4.63;4.22;;;;;;;;;;5081711;28;24533;-44
2022/05/10 12:24:34;;;;;;;4.73;4.33;;;;;;;;;;5089744;28;24477;-44
2022/05/10 12:27:11;;;;;;;3.75;3.55;;;;;;;;;;5089802;28;24506;-47
2022/05/10 12:29:40;;;;;;;4.60;4.30;;;;;;;;;;5084501;28;24445;-44
2022/05/10 12:32:10;;;;;;;4.30;3.83;;;;;;;;;;5090220;28;24450;-44
2022/05/10 12:34:42;;;;;;;5.00;4.30;;;;;;;;;;5087710;28;24395;-44
2022/05/10 12:37:24;;;;;;;4.00;3.60;;;;;;;;;;5069781;28;24470;-44
2022/05/10 12:39:52;;;;;;;4.30;4.10;;;;;;;;;;5083020;28;24429;-44
2022/05/10 12:42:21;;;;;;;5.10;4.70;;;;;;;;;;5088982;28;24405;-44
2022/05/10 12:45:02;;;;;;;4.40;4.10;;;;;;;;;;5089859;28;24843;-44
2022/05/10 12:47:50;;;;;;;4.28;3.80;;;;;;;;;;5070616;28;25021;-44
2022/05/10 12:50:31;;;;;;;4.47;4.15;;;;;;;;;;5068691;28;24418;-44
2022/05/10 12:52:56;;;;;;;3.70;3.50;;;;;;;;;;5089230;28;24895;-45
2022/05/10 12:55:24;;;;;;;3.60;3.30;;;;;;;;;;5077715;28;24407;-44
2022/05/10 12:57:55;;;;;;;4.30;4.00;;;;;;;;;;5074469;28;24890;-44
2022/05/10 13:00:23;;;;;;;4.15;3.85;;;;;;;;;;5090194;28;24447;-44
2022/05/10 13:02:54;;;;;;;4.47;4.07;;;;;;;;;;5087576;28;24452;-44
2022/05/10 13:05:26;;;;;;;4.80;4.50;;;;;;;;;;5088295;28;24526;-45
2022/05/10 13:08:09;;;;;;;4.80;4.30;;;;;;;;;;5089160;28;24461;-44
2022/05/10 13:10:35;;;;;;;4.13;3.72;;;;;;;;;;5075797;28;24980;-44
2022/05/10 13:13:03;;;;;;;4.45;4.10;;;;;;;;;;5067910;28;24905;-46
2022/05/10 13:15:29;;;;;;;4.82;4.43;;;;;;;;;;5071516;28;24577;-44
2022/05/10 13:17:55;;;;;;;5.17;4.70;;;;;;;;;;5087725;28;24591;-44
2022/05/10 13:20:26;;;;;;;4.90;4.30;;;;;;;;;;5089102;28;24966;-44
2022/05/10 13:22:59;;;;;;;5.30;4.80;;;;;;;;;;5089156;28;24401;-44
2022/05/10 13:25:29;;;;;;;4.85;4.38;;;;;;;;;;5088692;28;24481;-44
2022/05/10 13:28:09;;;;;;;5.93;5.53;;;;;;;;;;5069381;28;24421;-44
2022/05/10 13:30:35;;;;;;;5.30;4.90;;;;;;;;;;5087843;28;24476;-43
2022/05/10 13:33:00;;;;;;;5.20;4.80;;;;;;;;;;5088637;28;24390;-44
2022/05/10 13:35:27;;;;;;;4.97;4.65;;;;;;;;;;5089050;28;24503;-43
2022/05/10 13:38:04;;;;;;;4.88;4.57;;;;;;;;;;5087449;28;24766;-44
2022/05/10 13:40:31;;;;;;;4.85;4.55;;;;;;;;;;5068477;28;24414;-44
2022/05/10 13:43:04;;;;;;;4.70;4.40;;;;;;;;;;5085956;28;24430;-44
2022/05/10 13:45:29;;;;;;;5.60;5.20;;;;;;;;;;5088831;28;24414;-44
2022/05/10 13:48:00;;;;;;;5.55;5.05;;;;;;;;;;5088720;28;24774;-44
2022/05/10 13:50:26;;;;;;;5.10;4.80;;;;;;;;;;5087256;28;24644;-44
2022/05/10 13:52:56;;;;;;;5.80;5.30;;;;;;;;;;5078806;28;24984;-44
2022/05/10 13:55:23;;;;;;;5.20;4.80;;;;;;;;;;5088603;28;24398;-44
2022/05/10 13:57:51;;;;;;;4.78;4.40;;;;;;;;;;5088222;28;24415;-44
2022/05/10 14:00:25;;;;;;;5.10;4.70;;;;;;;;;;5088495;28;24386;-44
2022/05/10 14:02:52;;;;;;;5.38;4.95;;;;;;;;;;5078007;28;24441;-45
2022/05/10 14:05:18;;;;;;;5.25;4.85;;;;;;;;;;5084086;28;24964;-50
2022/05/10 14:07:47;;;;;;;5.50;5.10;;;;;;;;;;5084006;28;24441;-46
2022/05/10 14:10:14;;;;;;;5.20;4.90;;;;;;;;;;5081638;28;24537;-45
2022/05/10 14:12:47;;;;;;;5.35;4.95;;;;;;;;;;5082841;28;24436;-45
2022/05/10 14:15:12;;;;;;;4.80;4.40;;;;;;;;;;5081517;28;24421;-45
2022/05/10 14:17:40;;;;;;;5.22;4.72;;;;;;;;;;5082109;28;24442;-44
2022/05/10 14:20:19;;;;;;;5.30;4.90;;;;;;;;;;5086072;28;24430;-45
2022/05/10 14:22:45;;;;;;;4.97;4.57;;;;;;;;;;5079556;28;25049;-45
2022/05/10 14:25:11;;;;;;;5.82;5.43;;;;;;;;;;5075154;28;24511;-44
2022/05/10 14:27:51;;;;;;;5.38;4.88;;;;;;;;;;5084707;28;24434;-45
2022/05/10 14:30:23;;;;;;;4.80;4.50;;;;;;;;;;5083947;28;24453;-44
2022/05/10 14:32:48;;;;;;;5.32;4.50;;;;;;;;;;5084357;28;24535;-44
2022/05/10 14:35:33;;;;;;;5.00;4.60;;;;;;;;;;5087655;28;24461;-44
2022/05/10 14:38:05;;;;;;;5.75;5.22;;;;;;;;;;5079937;28;24998;-44
2022/05/10 14:40:39;;;;;;;5.50;5.10;;;;;;;;;;5074198;28;24979;-43
2022/05/10 14:43:06;;;;;;;5.00;4.70;;;;;;;;;;5086195;28;24419;-44
2022/05/10 14:45:36;;;;;;;5.38;4.97;;;;;;;;;;5082332;28;24414;-44
2022/05/10 14:48:20;;;;;;;5.60;5.20;;;;;;;;;;5080760;28;24421;-44
2022/05/10 14:50:51;;;;;;;5.63;5.22;;;;;;;;;;5084581;28;24418;-44
2022/05/10 14:53:18;;;;;;;4.90;4.60;;;;;;;;;;5083350;28;24422;-43
2022/05/10 14:55:45;;;;;;;5.60;5.20;;;;;;;;;;5085426;28;24498;-44
2022/05/10 14:58:30;;;;;;;5.88;5.38;;;;;;;;;;5084767;28;24430;-44
2022/05/10 15:01:04;;;;;;;6.60;6.00;;;;;;;;;;5068158;28;24855;-45
2022/05/10 15:03:30;;;;;;;5.95;5.45;;;;;;;;;;5087428;28;24417;-45
2022/05/10 15:05:56;;;;;;;6.33;5.80;;;;;;;;;;5084925;28;24431;-43
2022/05/10 15:08:21;;;;;;;6.40;5.90;;;;;;;;;;5085942;28;24426;-43
2022/05/10 15:10:48;;;;;;;5.57;5.10;;;;;;;;;;5083470;28;24434;-45
2022/05/10 15:13:13;;;;;;;5.70;4.87;;;;;;;;;;5080214;28;24481;-43
2022/05/10 15:15:44;;;;;;;4.70;4.40;;;;;;;;;;5083773;28;25372;-43
2022/05/10 15:20:53;;;;;;;5.10;4.70;;;;;;;;;;5083808;28;24994;-45